Terminal Aerodrome Forecast
Issued by NWS Blacksburg, VA

Home | Current Version | Previous Version | Text Only | Print | Product List | Glossary On
Versions: 1 2 3 4 5 6 7 8 9 10 11 12 13 14 15 16 17 18 19 20 21 22 23 24 25 26
000
FTUS41 KRNK 261120
TAFDAN
TAF
KDAN 261120Z 2612/2712 21010KT P6SM VCSH OVC100
     FM261600 24013KT P6SM -SHRA OVC035
     FM261900 26012G21KT 5SM SHRA VCTS OVC045CB
      TEMPO 2619/2621 2SM SHRA BR OVC006
     FM262300 29012G20KT P6SM VCSH SCT250
     FM270700 28006KT P6SM SKC=

USA.gov is the U.S. government's official web portal to all federal, state and local government web resources and services.